sensor_id;sensor_type;location;lat;lon;timestamp;P1;durP1;ratioP1;P2;durP2;ratioP2
64597;SDS011;51004;54.692;9.332;2023-06-26T00:01:18;6.07;;;4.38;;
64597;SDS011;51004;54.692;9.332;2023-06-26T00:03:47;4.72;;;4.32;;
64597;SDS011;51004;54.692;9.332;2023-06-26T00:06:16;5.68;;;4.75;;
64597;SDS011;51004;54.692;9.332;2023-06-26T00:08:42;5.60;;;4.45;;
64597;SDS011;51004;54.692;9.332;2023-06-26T00:11:08;4.60;;;4.10;;
64597;SDS011;51004;54.692;9.332;2023-06-26T00:13:34;5.63;;;4.60;;
64597;SDS011;51004;54.692;9.332;2023-06-26T00:16:00;4.85;;;4.28;;
64597;SDS011;51004;54.692;9.332;2023-06-26T00:18:28;4.57;;;4.10;;
64597;SDS011;51004;54.692;9.332;2023-06-26T00:20:54;4.90;;;3.80;;
64597;SDS011;51004;54.692;9.332;2023-06-26T00:23:20;6.00;;;4.50;;
64597;SDS011;51004;54.692;9.332;2023-06-26T00:25:46;5.47;;;3.97;;
64597;SDS011;51004;54.692;9.332;2023-06-26T00:28:12;6.25;;;4.28;;
64597;SDS011;51004;54.692;9.332;2023-06-26T00:30:38;10.77;;;4.65;;
64597;SDS011;51004;54.692;9.332;2023-06-26T00:33:04;6.50;;;4.22;;
64597;SDS011;51004;54.692;9.332;2023-06-26T00:35:30;7.45;;;4.53;;
64597;SDS011;51004;54.692;9.332;2023-06-26T00:37:56;7.60;;;4.90;;
64597;SDS011;51004;54.692;9.332;2023-06-26T00:40:22;4.88;;;4.13;;
64597;SDS011;51004;54.692;9.332;2023-06-26T00:42:49;5.20;;;4.32;;
64597;SDS011;51004;54.692;9.332;2023-06-26T00:45:15;4.95;;;4.32;;
64597;SDS011;51004;54.692;9.332;2023-06-26T00:47:41;10.48;;;4.20;;
64597;SDS011;51004;54.692;9.332;2023-06-26T00:50:07;5.93;;;4.43;;
64597;SDS011;51004;54.692;9.332;2023-06-26T00:52:34;5.30;;;4.60;;
64597;SDS011;51004;54.692;9.332;2023-06-26T00:55:00;5.53;;;4.15;;
64597;SDS011;51004;54.692;9.332;2023-06-26T00:57:26;6.10;;;4.40;;
64597;SDS011;51004;54.692;9.332;2023-06-26T00:59:52;4.90;;;4.00;;
64597;SDS011;51004;54.692;9.332;2023-06-26T01:02:18;5.35;;;4.40;;
64597;SDS011;51004;54.692;9.332;2023-06-26T01:04:54;5.43;;;4.40;;
64597;SDS011;51004;54.692;9.332;2023-06-26T01:07:20;5.57;;;4.95;;
64597;SDS011;51004;54.692;9.332;2023-06-26T01:09:47;5.20;;;4.45;;
64597;SDS011;51004;54.692;9.332;2023-06-26T01:12:13;4.60;;;3.80;;
64597;SDS011;51004;54.692;9.332;2023-06-26T01:14:40;5.22;;;4.60;;
64597;SDS011;51004;54.692;9.332;2023-06-26T01:17:06;5.35;;;4.85;;
64597;SDS011;51004;54.692;9.332;2023-06-26T01:19:33;7.80;;;4.72;;
64597;SDS011;51004;54.692;9.332;2023-06-26T01:22:11;5.45;;;4.65;;
64597;SDS011;51004;54.692;9.332;2023-06-26T01:24:42;6.38;;;4.40;;
64597;SDS011;51004;54.692;9.332;2023-06-26T01:27:10;5.20;;;4.70;;
64597;SDS011;51004;54.692;9.332;2023-06-26T01:29:37;5.00;;;4.28;;
64597;SDS011;51004;54.692;9.332;2023-06-26T01:32:03;6.15;;;4.35;;
64597;SDS011;51004;54.692;9.332;2023-06-26T01:34:30;6.78;;;4.50;;
64597;SDS011;51004;54.692;9.332;2023-06-26T01:36:56;6.30;;;4.10;;
64597;SDS011;51004;54.692;9.332;2023-06-26T01:39:22;6.43;;;4.38;;
64597;SDS011;51004;54.692;9.332;2023-06-26T01:41:48;6.43;;;4.47;;
64597;SDS011;51004;54.692;9.332;2023-06-26T01:44:17;6.93;;;4.75;;
64597;SDS011;51004;54.692;9.332;2023-06-26T01:49:31;5.35;;;4.63;;
64597;SDS011;51004;54.692;9.332;2023-06-26T01:54:31;4.88;;;4.20;;
64597;SDS011;51004;54.692;9.332;2023-06-26T01:56:59;6.68;;;4.70;;
64597;SDS011;51004;54.692;9.332;2023-06-26T01:59:26;7.35;;;5.10;;
64597;SDS011;51004;54.692;9.332;2023-06-26T02:02:00;4.80;;;4.30;;
64597;SDS011;51004;54.692;9.332;2023-06-26T02:04:27;5.82;;;4.90;;
64597;SDS011;51004;54.692;9.332;2023-06-26T02:06:53;5.78;;;4.75;;
64597;SDS011;51004;54.692;9.332;2023-06-26T02:09:20;7.47;;;4.88;;
64597;SDS011;51004;54.692;9.332;2023-06-26T02:11:46;5.65;;;4.45;;
64597;SDS011;51004;54.692;9.332;2023-06-26T02:14:12;4.80;;;4.30;;
64597;SDS011;51004;54.692;9.332;2023-06-26T02:16:38;4.78;;;4.38;;
64597;SDS011;51004;54.692;9.332;2023-06-26T02:19:03;7.47;;;5.10;;
64597;SDS011;51004;54.692;9.332;2023-06-26T02:21:30;7.30;;;5.47;;
64597;SDS011;51004;54.692;9.332;2023-06-26T02:23:59;6.32;;;5.25;;
64597;SDS011;51004;54.692;9.332;2023-06-26T02:26:25;5.65;;;5.03;;
64597;SDS011;51004;54.692;9.332;2023-06-26T02:28:51;5.72;;;5.03;;
64597;SDS011;51004;54.692;9.332;2023-06-26T02:31:17;5.90;;;5.20;;
64597;SDS011;51004;54.692;9.332;2023-06-26T02:33:43;6.80;;;5.25;;
64597;SDS011;51004;54.692;9.332;2023-06-26T02:36:10;5.97;;;5.38;;
64597;SDS011;51004;54.692;9.332;2023-06-26T02:38:36;8.30;;;5.45;;
64597;SDS011;51004;54.692;9.332;2023-06-26T02:41:02;6.15;;;5.55;;
64597;SDS011;51004;54.692;9.332;2023-06-26T02:43:44;6.45;;;5.50;;
64597;SDS011;51004;54.692;9.332;2023-06-26T02:46:10;6.10;;;5.30;;
64597;SDS011;51004;54.692;9.332;2023-06-26T02:48:36;5.68;;;5.15;;
64597;SDS011;51004;54.692;9.332;2023-06-26T02:51:02;6.57;;;5.22;;
64597;SDS011;51004;54.692;9.332;2023-06-26T02:53:28;5.68;;;5.18;;
64597;SDS011;51004;54.692;9.332;2023-06-26T02:55:54;6.15;;;5.53;;
64597;SDS011;51004;54.692;9.332;2023-06-26T02:58:20;7.22;;;5.57;;
64597;SDS011;51004;54.692;9.332;2023-06-26T03:00:46;6.57;;;5.85;;
64597;SDS011;51004;54.692;9.332;2023-06-26T03:03:13;6.93;;;5.50;;
64597;SDS011;51004;54.692;9.332;2023-06-26T03:05:39;7.68;;;5.82;;
64597;SDS011;51004;54.692;9.332;2023-06-26T03:08:05;6.15;;;5.50;;
64597;SDS011;51004;54.692;9.332;2023-06-26T03:10:31;6.05;;;5.45;;
64597;SDS011;51004;54.692;9.332;2023-06-26T03:12:57;6.53;;;5.90;;
64597;SDS011;51004;54.692;9.332;2023-06-26T03:15:23;9.80;;;6.22;;
64597;SDS011;51004;54.692;9.332;2023-06-26T03:17:49;8.00;;;5.72;;
64597;SDS011;51004;54.692;9.332;2023-06-26T03:20:15;7.75;;;6.25;;
64597;SDS011;51004;54.692;9.332;2023-06-26T03:22:41;6.30;;;5.70;;
64597;SDS011;51004;54.692;9.332;2023-06-26T03:25:07;6.85;;;5.57;;
64597;SDS011;51004;54.692;9.332;2023-06-26T03:27:33;6.25;;;5.57;;
64597;SDS011;51004;54.692;9.332;2023-06-26T03:29:59;6.13;;;5.53;;
64597;SDS011;51004;54.692;9.332;2023-06-26T03:32:25;6.53;;;5.93;;
64597;SDS011;51004;54.692;9.332;2023-06-26T03:34:51;6.68;;;5.97;;
64597;SDS011;51004;54.692;9.332;2023-06-26T03:37:21;6.97;;;5.68;;
64597;SDS011;51004;54.692;9.332;2023-06-26T03:39:47;6.72;;;6.07;;
64597;SDS011;51004;54.692;9.332;2023-06-26T03:42:13;6.50;;;5.80;;
64597;SDS011;51004;54.692;9.332;2023-06-26T03:44:39;7.55;;;6.18;;
64597;SDS011;51004;54.692;9.332;2023-06-26T03:47:05;6.68;;;6.03;;
64597;SDS011;51004;54.692;9.332;2023-06-26T03:49:34;6.30;;;5.70;;
64597;SDS011;51004;54.692;9.332;2023-06-26T03:52:00;6.53;;;5.82;;
64597;SDS011;51004;54.692;9.332;2023-06-26T03:54:29;5.90;;;5.30;;
64597;SDS011;51004;54.692;9.332;2023-06-26T03:56:55;6.13;;;5.53;;
64597;SDS011;51004;54.692;9.332;2023-06-26T03:59:22;6.32;;;5.22;;
64597;SDS011;51004;54.692;9.332;2023-06-26T04:01:48;6.53;;;5.93;;
64597;SDS011;51004;54.692;9.332;2023-06-26T04:04:14;14.23;;;5.88;;
64597;SDS011;51004;54.692;9.332;2023-06-26T04:06:42;6.93;;;6.22;;
64597;SDS011;51004;54.692;9.332;2023-06-26T04:09:08;6.43;;;5.82;;
64597;SDS011;51004;54.692;9.332;2023-06-26T04:11:41;7.18;;;6.45;;
64597;SDS011;51004;54.692;9.332;2023-06-26T04:14:10;8.50;;;5.78;;
64597;SDS011;51004;54.692;9.332;2023-06-26T04:16:37;7.88;;;5.65;;
64597;SDS011;51004;54.692;9.332;2023-06-26T04:19:03;6.55;;;5.95;;
64597;SDS011;51004;54.692;9.332;2023-06-26T04:21:33;6.93;;;6.20;;
64597;SDS011;51004;54.692;9.332;2023-06-26T04:23:59;7.35;;;6.65;;
64597;SDS011;51004;54.692;9.332;2023-06-26T04:26:25;8.70;;;6.07;;
64597;SDS011;51004;54.692;9.332;2023-06-26T04:28:52;8.02;;;6.43;;
64597;SDS011;51004;54.692;9.332;2023-06-26T04:31:18;7.68;;;6.18;;
64597;SDS011;51004;54.692;9.332;2023-06-26T04:33:45;6.93;;;6.05;;
64597;SDS011;51004;54.692;9.332;2023-06-26T04:36:15;7.40;;;6.22;;
64597;SDS011;51004;54.692;9.332;2023-06-26T04:38:42;7.38;;;6.65;;
64597;SDS011;51004;54.692;9.332;2023-06-26T04:41:08;6.85;;;6.00;;
64597;SDS011;51004;54.692;9.332;2023-06-26T04:43:34;7.35;;;6.65;;
64597;SDS011;51004;54.692;9.332;2023-06-26T04:46:04;7.38;;;6.55;;
64597;SDS011;51004;54.692;9.332;2023-06-26T04:48:30;8.40;;;6.55;;
64597;SDS011;51004;54.692;9.332;2023-06-26T04:50:56;7.95;;;6.40;;
64597;SDS011;51004;54.692;9.332;2023-06-26T04:53:24;6.85;;;6.10;;
64597;SDS011;51004;54.692;9.332;2023-06-26T04:55:57;9.77;;;7.20;;
64597;SDS011;51004;54.692;9.332;2023-06-26T04:58:23;7.97;;;7.18;;
64597;SDS011;51004;54.692;9.332;2023-06-26T05:00:49;7.47;;;6.70;;
64597;SDS011;51004;54.692;9.332;2023-06-26T05:03:16;8.10;;;6.90;;
64597;SDS011;51004;54.692;9.332;2023-06-26T05:05:42;7.90;;;7.00;;
64597;SDS011;51004;54.692;9.332;2023-06-26T05:10:44;7.80;;;6.32;;
64597;SDS011;51004;54.692;9.332;2023-06-26T05:13:10;7.93;;;7.13;;
64597;SDS011;51004;54.692;9.332;2023-06-26T05:15:40;8.35;;;7.53;;
64597;SDS011;51004;54.692;9.332;2023-06-26T05:18:05;7.75;;;6.93;;
64597;SDS011;51004;54.692;9.332;2023-06-26T05:20:32;7.50;;;6.80;;
64597;SDS011;51004;54.692;9.332;2023-06-26T05:22:58;7.85;;;6.65;;
64597;SDS011;51004;54.692;9.332;2023-06-26T05:25:24;9.10;;;7.30;;
64597;SDS011;51004;54.692;9.332;2023-06-26T05:27:50;7.60;;;6.90;;
64597;SDS011;51004;54.692;9.332;2023-06-26T05:30:17;7.57;;;6.88;;
64597;SDS011;51004;54.692;9.332;2023-06-26T05:32:43;8.45;;;6.55;;
64597;SDS011;51004;54.692;9.332;2023-06-26T05:35:12;7.63;;;6.93;;
64597;SDS011;51004;54.692;9.332;2023-06-26T05:37:38;7.13;;;6.43;;
64597;SDS011;51004;54.692;9.332;2023-06-26T05:40:06;11.07;;;6.70;;
64597;SDS011;51004;54.692;9.332;2023-06-26T05:42:33;9.30;;;7.38;;
64597;SDS011;51004;54.692;9.332;2023-06-26T05:44:59;7.38;;;6.50;;
64597;SDS011;51004;54.692;9.332;2023-06-26T05:47:25;9.27;;;6.82;;
64597;SDS011;51004;54.692;9.332;2023-06-26T05:49:51;8.70;;;6.70;;
64597;SDS011;51004;54.692;9.332;2023-06-26T05:52:17;7.28;;;6.60;;
64597;SDS011;51004;54.692;9.332;2023-06-26T05:54:43;11.25;;;6.90;;
64597;SDS011;51004;54.692;9.332;2023-06-26T05:57:10;7.70;;;6.90;;
64597;SDS011;51004;54.692;9.332;2023-06-26T05:59:36;7.30;;;6.28;;
64597;SDS011;51004;54.692;9.332;2023-06-26T06:02:02;8.48;;;6.50;;
64597;SDS011;51004;54.692;9.332;2023-06-26T06:04:28;8.60;;;6.30;;
64597;SDS011;51004;54.692;9.332;2023-06-26T06:06:54;10.80;;;6.47;;
64597;SDS011;51004;54.692;9.332;2023-06-26T06:09:20;9.40;;;6.45;;
64597;SDS011;51004;54.692;9.332;2023-06-26T06:11:46;7.22;;;6.53;;
64597;SDS011;51004;54.692;9.332;2023-06-26T06:14:12;7.95;;;6.35;;
64597;SDS011;51004;54.692;9.332;2023-06-26T06:16:38;7.20;;;6.25;;
64597;SDS011;51004;54.692;9.332;2023-06-26T06:19:04;7.00;;;6.25;;
64597;SDS011;51004;54.692;9.332;2023-06-26T06:21:32;7.57;;;6.82;;
64597;SDS011;51004;54.692;9.332;2023-06-26T06:24:01;7.85;;;6.40;;
64597;SDS011;51004;54.692;9.332;2023-06-26T06:26:28;8.13;;;6.05;;
64597;SDS011;51004;54.692;9.332;2023-06-26T06:28:54;9.45;;;6.15;;
64597;SDS011;51004;54.692;9.332;2023-06-26T06:31:20;9.27;;;5.95;;
64597;SDS011;51004;54.692;9.332;2023-06-26T06:33:46;6.97;;;6.28;;
64597;SDS011;51004;54.692;9.332;2023-06-26T06:36:12;6.75;;;6.15;;
64597;SDS011;51004;54.692;9.332;2023-06-26T06:38:44;9.57;;;5.57;;
64597;SDS011;51004;54.692;9.332;2023-06-26T06:41:10;6.82;;;6.03;;
64597;SDS011;51004;54.692;9.332;2023-06-26T06:43:37;6.43;;;5.82;;
64597;SDS011;51004;54.692;9.332;2023-06-26T06:46:04;8.43;;;6.40;;
64597;SDS011;51004;54.692;9.332;2023-06-26T06:48:30;7.05;;;6.35;;
64597;SDS011;51004;54.692;9.332;2023-06-26T06:50:56;7.32;;;5.75;;
64597;SDS011;51004;54.692;9.332;2023-06-26T06:53:22;7.10;;;6.40;;
64597;SDS011;51004;54.692;9.332;2023-06-26T06:55:49;9.23;;;6.07;;
64597;SDS011;51004;54.692;9.332;2023-06-26T06:58:15;8.85;;;5.90;;
64597;SDS011;51004;54.692;9.332;2023-06-26T07:00:42;9.35;;;5.65;;
64597;SDS011;51004;54.692;9.332;2023-06-26T07:03:08;7.15;;;5.90;;
64597;SDS011;51004;54.692;9.332;2023-06-26T07:05:35;6.72;;;5.60;;
64597;SDS011;51004;54.692;9.332;2023-06-26T07:08:01;8.23;;;6.32;;
64597;SDS011;51004;54.692;9.332;2023-06-26T07:10:28;7.63;;;5.85;;
64597;SDS011;51004;54.692;9.332;2023-06-26T07:12:53;6.80;;;5.78;;
64597;SDS011;51004;54.692;9.332;2023-06-26T07:15:20;7.63;;;5.82;;
64597;SDS011;51004;54.692;9.332;2023-06-26T07:17:46;13.43;;;6.38;;
64597;SDS011;51004;54.692;9.332;2023-06-26T07:20:12;6.32;;;5.72;;
64597;SDS011;51004;54.692;9.332;2023-06-26T07:22:41;6.53;;;5.88;;
64597;SDS011;51004;54.692;9.332;2023-06-26T07:25:07;6.50;;;5.90;;
64597;SDS011;51004;54.692;9.332;2023-06-26T07:27:39;8.52;;;5.80;;
64597;SDS011;51004;54.692;9.332;2023-06-26T07:30:06;6.53;;;5.93;;
64597;SDS011;51004;54.692;9.332;2023-06-26T07:32:40;6.43;;;5.82;;
64597;SDS011;51004;54.692;9.332;2023-06-26T07:35:07;6.97;;;5.95;;
64597;SDS011;51004;54.692;9.332;2023-06-26T07:37:33;8.10;;;6.15;;
64597;SDS011;51004;54.692;9.332;2023-06-26T07:39:59;6.53;;;5.85;;
64597;SDS011;51004;54.692;9.332;2023-06-26T07:42:25;7.32;;;5.53;;
64597;SDS011;51004;54.692;9.332;2023-06-26T07:44:51;7.00;;;5.68;;
64597;SDS011;51004;54.692;9.332;2023-06-26T07:47:17;6.15;;;5.47;;
64597;SDS011;51004;54.692;9.332;2023-06-26T07:49:43;8.88;;;5.55;;
64597;SDS011;51004;54.692;9.332;2023-06-26T07:52:09;6.97;;;5.20;;
64597;SDS011;51004;54.692;9.332;2023-06-26T07:54:36;7.40;;;5.43;;
64597;SDS011;51004;54.692;9.332;2023-06-26T07:57:03;6.25;;;5.53;;
64597;SDS011;51004;54.692;9.332;2023-06-26T07:59:31;9.13;;;6.78;;
64597;SDS011;51004;54.692;9.332;2023-06-26T08:01:57;6.78;;;5.90;;
64597;SDS011;51004;54.692;9.332;2023-06-26T08:04:24;6.10;;;5.50;;
64597;SDS011;51004;54.692;9.332;2023-06-26T08:06:52;8.70;;;6.40;;
64597;SDS011;51004;54.692;9.332;2023-06-26T08:09:19;7.03;;;5.35;;
64597;SDS011;51004;54.692;9.332;2023-06-26T08:11:45;7.90;;;6.53;;
64597;SDS011;51004;54.692;9.332;2023-06-26T08:14:11;7.78;;;7.05;;
64597;SDS011;51004;54.692;9.332;2023-06-26T08:16:38;7.18;;;5.82;;
64597;SDS011;51004;54.692;9.332;2023-06-26T08:19:04;8.48;;;6.38;;
64597;SDS011;51004;54.692;9.332;2023-06-26T08:21:33;7.43;;;6.72;;
64597;SDS011;51004;54.692;9.332;2023-06-26T08:23:59;8.68;;;6.60;;
64597;SDS011;51004;54.692;9.332;2023-06-26T08:26:25;14.38;;;9.30;;
64597;SDS011;51004;54.692;9.332;2023-06-26T08:28:51;10.23;;;9.13;;
64597;SDS011;51004;54.692;9.332;2023-06-26T08:31:17;10.70;;;9.43;;
64597;SDS011;51004;54.692;9.332;2023-06-26T08:33:44;10.98;;;9.95;;
64597;SDS011;51004;54.692;9.332;2023-06-26T08:36:10;11.88;;;9.82;;
64597;SDS011;51004;54.692;9.332;2023-06-26T08:38:36;12.13;;;10.98;;
64597;SDS011;51004;54.692;9.332;2023-06-26T08:41:02;14.55;;;11.18;;
64597;SDS011;51004;54.692;9.332;2023-06-26T08:43:28;12.70;;;11.10;;
64597;SDS011;51004;54.692;9.332;2023-06-26T08:45:54;12.93;;;11.63;;
64597;SDS011;51004;54.692;9.332;2023-06-26T08:48:20;12.73;;;11.43;;
64597;SDS011;51004;54.692;9.332;2023-06-26T08:50:48;17.15;;;11.23;;
64597;SDS011;51004;54.692;9.332;2023-06-26T08:53:49;13.90;;;12.50;;
64597;SDS011;51004;54.692;9.332;2023-06-26T08:56:10;14.30;;;11.73;;
64597;SDS011;51004;54.692;9.332;2023-06-26T08:58:37;12.15;;;10.85;;
64597;SDS011;51004;54.692;9.332;2023-06-26T09:01:04;14.02;;;9.55;;
64597;SDS011;51004;54.692;9.332;2023-06-26T09:03:31;12.82;;;10.38;;
64597;SDS011;51004;54.692;9.332;2023-06-26T09:05:58;11.45;;;10.25;;
64597;SDS011;51004;54.692;9.332;2023-06-26T09:08:24;12.80;;;10.10;;
64597;SDS011;51004;54.692;9.332;2023-06-26T09:10:51;11.75;;;9.90;;
64597;SDS011;51004;54.692;9.332;2023-06-26T09:13:17;10.95;;;9.02;;
64597;SDS011;51004;54.692;9.332;2023-06-26T09:15:44;11.43;;;8.65;;
64597;SDS011;51004;54.692;9.332;2023-06-26T09:18:10;11.85;;;9.15;;
64597;SDS011;51004;54.692;9.332;2023-06-26T09:20:37;9.90;;;7.07;;
64597;SDS011;51004;54.692;9.332;2023-06-26T09:23:03;10.32;;;7.20;;
64597;SDS011;51004;54.692;9.332;2023-06-26T09:25:30;13.70;;;7.63;;
64597;SDS011;51004;54.692;9.332;2023-06-26T09:27:56;10.63;;;8.05;;
64597;SDS011;51004;54.692;9.332;2023-06-26T09:30:22;9.20;;;7.03;;
64597;SDS011;51004;54.692;9.332;2023-06-26T09:32:48;10.80;;;7.32;;
64597;SDS011;51004;54.692;9.332;2023-06-26T09:35:19;8.50;;;6.10;;
64597;SDS011;51004;54.692;9.332;2023-06-26T09:37:45;7.47;;;5.72;;
64597;SDS011;51004;54.692;9.332;2023-06-26T09:40:13;9.27;;;5.55;;
64597;SDS011;51004;54.692;9.332;2023-06-26T09:42:39;9.05;;;5.50;;
64597;SDS011;51004;54.692;9.332;2023-06-26T09:45:05;9.93;;;5.00;;
64597;SDS011;51004;54.692;9.332;2023-06-26T09:47:32;7.40;;;4.88;;
64597;SDS011;51004;54.692;9.332;2023-06-26T09:49:59;8.07;;;5.57;;
64597;SDS011;51004;54.692;9.332;2023-06-26T09:52:26;7.68;;;5.07;;
64597;SDS011;51004;54.692;9.332;2023-06-26T09:55:08;7.90;;;5.35;;
64597;SDS011;51004;54.692;9.332;2023-06-26T09:57:34;11.55;;;6.00;;
64597;SDS011;51004;54.692;9.332;2023-06-26T10:00:15;8.75;;;6.32;;
64597;SDS011;51004;54.692;9.332;2023-06-26T10:02:42;7.10;;;5.88;;
64597;SDS011;51004;54.692;9.332;2023-06-26T10:05:08;7.82;;;5.65;;
64597;SDS011;51004;54.692;9.332;2023-06-26T10:07:34;9.80;;;5.80;;
64597;SDS011;51004;54.692;9.332;2023-06-26T10:10:04;9.07;;;5.72;;
64597;SDS011;51004;54.692;9.332;2023-06-26T10:12:31;13.95;;;5.35;;
64597;SDS011;51004;54.692;9.332;2023-06-26T10:14:58;8.10;;;5.72;;
64597;SDS011;51004;54.692;9.332;2023-06-26T10:17:27;8.18;;;5.75;;
64597;SDS011;51004;54.692;9.332;2023-06-26T10:19:54;7.13;;;5.30;;
64597;SDS011;51004;54.692;9.332;2023-06-26T10:22:21;11.77;;;5.90;;
64597;SDS011;51004;54.692;9.332;2023-06-26T10:24:50;9.15;;;5.68;;
64597;SDS011;51004;54.692;9.332;2023-06-26T10:27:20;8.52;;;6.13;;
64597;SDS011;51004;54.692;9.332;2023-06-26T10:29:51;6.68;;;5.80;;
64597;SDS011;51004;54.692;9.332;2023-06-26T10:32:19;6.88;;;5.47;;
64597;SDS011;51004;54.692;9.332;2023-06-26T10:34:49;8.60;;;6.30;;
64597;SDS011;51004;54.692;9.332;2023-06-26T10:37:15;10.55;;;6.63;;
64597;SDS011;51004;54.692;9.332;2023-06-26T10:39:45;8.75;;;6.25;;
64597;SDS011;51004;54.692;9.332;2023-06-26T10:42:15;11.80;;;6.95;;
64597;SDS011;51004;54.692;9.332;2023-06-26T10:44:42;9.68;;;6.57;;
64597;SDS011;51004;54.692;9.332;2023-06-26T10:47:08;11.18;;;6.00;;
64597;SDS011;51004;54.692;9.332;2023-06-26T10:49:35;10.68;;;6.82;;
64597;SDS011;51004;54.692;9.332;2023-06-26T10:52:02;14.27;;;6.20;;
64597;SDS011;51004;54.692;9.332;2023-06-26T10:54:28;13.63;;;6.38;;
64597;SDS011;51004;54.692;9.332;2023-06-26T10:56:54;11.88;;;6.70;;
64597;SDS011;51004;54.692;9.332;2023-06-26T10:59:24;11.65;;;6.53;;
64597;SDS011;51004;54.692;9.332;2023-06-26T11:01:57;11.98;;;5.72;;
64597;SDS011;51004;54.692;9.332;2023-06-26T11:07:25;12.95;;;3.78;;
64597;SDS011;51004;54.692;9.332;2023-06-26T11:09:59;12.77;;;3.15;;
64597;SDS011;51004;54.692;9.332;2023-06-26T11:14:53;12.88;;;3.00;;
64597;SDS011;51004;54.692;9.332;2023-06-26T11:17:20;10.02;;;3.15;;
64597;SDS011;51004;54.692;9.332;2023-06-26T11:19:46;11.25;;;2.65;;
64597;SDS011;51004;54.692;9.332;2023-06-26T11:22:12;6.90;;;1.88;;
64597;SDS011;51004;54.692;9.332;2023-06-26T11:24:39;5.30;;;1.83;;
64597;SDS011;51004;54.692;9.332;2023-06-26T11:27:07;5.53;;;2.60;;
64597;SDS011;51004;54.692;9.332;2023-06-26T11:29:33;5.72;;;1.85;;
64597;SDS011;51004;54.692;9.332;2023-06-26T11:32:00;8.90;;;2.13;;
64597;SDS011;51004;54.692;9.332;2023-06-26T11:34:29;8.30;;;2.63;;
64597;SDS011;51004;54.692;9.332;2023-06-26T11:36:56;9.55;;;2.88;;
64597;SDS011;51004;54.692;9.332;2023-06-26T11:39:22;9.35;;;2.80;;
64597;SDS011;51004;54.692;9.332;2023-06-26T11:41:48;8.77;;;2.30;;
64597;SDS011;51004;54.692;9.332;2023-06-26T11:44:14;8.55;;;2.50;;
64597;SDS011;51004;54.692;9.332;2023-06-26T11:46:51;14.73;;;3.85;;
64597;SDS011;51004;54.692;9.332;2023-06-26T11:49:17;7.07;;;2.70;;
64597;SDS011;51004;54.692;9.332;2023-06-26T11:51:43;15.23;;;3.75;;
64597;SDS011;51004;54.692;9.332;2023-06-26T11:54:09;11.20;;;2.45;;
64597;SDS011;51004;54.692;9.332;2023-06-26T11:56:36;9.05;;;2.97;;
64597;SDS011;51004;54.692;9.332;2023-06-26T11:59:06;9.20;;;2.83;;
64597;SDS011;51004;54.692;9.332;2023-06-26T12:01:34;8.20;;;2.10;;
64597;SDS011;51004;54.692;9.332;2023-06-26T12:04:01;6.28;;;2.53;;
64597;SDS011;51004;54.692;9.332;2023-06-26T12:06:29;9.15;;;2.20;;
64597;SDS011;51004;54.692;9.332;2023-06-26T12:08:55;9.35;;;2.50;;
64597;SDS011;51004;54.692;9.332;2023-06-26T12:11:21;9.10;;;3.08;;
64597;SDS011;51004;54.692;9.332;2023-06-26T12:13:49;7.55;;;2.25;;
64597;SDS011;51004;54.692;9.332;2023-06-26T12:16:15;7.45;;;2.42;;
64597;SDS011;51004;54.692;9.332;2023-06-26T12:18:41;10.65;;;2.78;;
64597;SDS011;51004;54.692;9.332;2023-06-26T12:21:08;8.07;;;1.98;;
64597;SDS011;51004;54.692;9.332;2023-06-26T12:23:40;9.18;;;2.35;;
64597;SDS011;51004;54.692;9.332;2023-06-26T12:26:19;8.10;;;3.13;;
64597;SDS011;51004;54.692;9.332;2023-06-26T12:28:46;6.88;;;2.38;;
64597;SDS011;51004;54.692;9.332;2023-06-26T12:31:15;6.90;;;1.98;;
64597;SDS011;51004;54.692;9.332;2023-06-26T12:33:44;6.75;;;1.92;;
64597;SDS011;51004;54.692;9.332;2023-06-26T12:36:13;5.05;;;1.80;;
64597;SDS011;51004;54.692;9.332;2023-06-26T12:38:40;2.33;;;1.00;;
64597;SDS011;51004;54.692;9.332;2023-06-26T12:41:13;6.15;;;1.75;;
64597;SDS011;51004;54.692;9.332;2023-06-26T12:43:42;4.55;;;1.50;;
64597;SDS011;51004;54.692;9.332;2023-06-26T12:46:08;3.85;;;1.40;;
64597;SDS011;51004;54.692;9.332;2023-06-26T12:51:11;7.78;;;1.80;;
64597;SDS011;51004;54.692;9.332;2023-06-26T12:53:37;5.93;;;1.80;;
64597;SDS011;51004;54.692;9.332;2023-06-26T12:56:10;3.97;;;1.15;;
64597;SDS011;51004;54.692;9.332;2023-06-26T12:58:37;6.40;;;1.48;;
64597;SDS011;51004;54.692;9.332;2023-06-26T13:01:04;4.38;;;1.13;;
64597;SDS011;51004;54.692;9.332;2023-06-26T13:03:39;7.80;;;1.98;;
64597;SDS011;51004;54.692;9.332;2023-06-26T13:06:05;8.68;;;2.20;;
64597;SDS011;51004;54.692;9.332;2023-06-26T13:08:31;3.88;;;1.50;;
64597;SDS011;51004;54.692;9.332;2023-06-26T13:10:58;3.17;;;1.25;;
64597;SDS011;51004;54.692;9.332;2023-06-26T13:13:24;4.13;;;1.70;;
64597;SDS011;51004;54.692;9.332;2023-06-26T13:15:50;7.28;;;1.95;;
64597;SDS011;51004;54.692;9.332;2023-06-26T13:18:16;5.57;;;1.50;;
64597;SDS011;51004;54.692;9.332;2023-06-26T13:20:42;4.63;;;1.73;;
64597;SDS011;51004;54.692;9.332;2023-06-26T13:23:08;5.97;;;1.50;;
64597;SDS011;51004;54.692;9.332;2023-06-26T13:25:35;5.63;;;1.40;;
64597;SDS011;51004;54.692;9.332;2023-06-26T13:28:01;3.20;;;1.42;;
64597;SDS011;51004;54.692;9.332;2023-06-26T13:30:27;6.15;;;1.70;;
64597;SDS011;51004;54.692;9.332;2023-06-26T13:32:53;5.80;;;1.63;;
64597;SDS011;51004;54.692;9.332;2023-06-26T13:35:19;5.30;;;1.30;;
64597;SDS011;51004;54.692;9.332;2023-06-26T13:37:45;4.75;;;2.03;;
64597;SDS011;51004;54.692;9.332;2023-06-26T13:40:12;12.18;;;2.35;;
64597;SDS011;51004;54.692;9.332;2023-06-26T13:42:38;8.73;;;1.58;;
64597;SDS011;51004;54.692;9.332;2023-06-26T13:45:11;3.67;;;1.48;;
64597;SDS011;51004;54.692;9.332;2023-06-26T13:47:37;3.47;;;1.35;;
64597;SDS011;51004;54.692;9.332;2023-06-26T13:50:06;5.28;;;1.83;;
64597;SDS011;51004;54.692;9.332;2023-06-26T13:52:32;3.83;;;1.80;;
64597;SDS011;51004;54.692;9.332;2023-06-26T13:54:58;4.30;;;1.20;;
64597;SDS011;51004;54.692;9.332;2023-06-26T13:57:24;5.72;;;1.33;;
64597;SDS011;51004;54.692;9.332;2023-06-26T13:59:52;5.88;;;1.67;;
64597;SDS011;51004;54.692;9.332;2023-06-26T14:02:18;5.53;;;1.40;;
64597;SDS011;51004;54.692;9.332;2023-06-26T14:04:44;4.30;;;1.55;;
64597;SDS011;51004;54.692;9.332;2023-06-26T14:07:10;4.57;;;1.30;;
64597;SDS011;51004;54.692;9.332;2023-06-26T14:09:36;5.03;;;1.40;;
64597;SDS011;51004;54.692;9.332;2023-06-26T14:12:03;5.30;;;1.83;;
64597;SDS011;51004;54.692;9.332;2023-06-26T14:14:29;2.63;;;1.17;;
64597;SDS011;51004;54.692;9.332;2023-06-26T14:16:55;7.03;;;1.73;;
64597;SDS011;51004;54.692;9.332;2023-06-26T14:19:21;5.95;;;1.60;;
64597;SDS011;51004;54.692;9.332;2023-06-26T14:21:50;5.20;;;1.65;;
64597;SDS011;51004;54.692;9.332;2023-06-26T14:24:16;5.63;;;1.63;;
64597;SDS011;51004;54.692;9.332;2023-06-26T14:26:42;5.35;;;1.65;;
64597;SDS011;51004;54.692;9.332;2023-06-26T14:29:08;5.15;;;1.70;;
64597;SDS011;51004;54.692;9.332;2023-06-26T14:31:34;5.15;;;1.92;;
64597;SDS011;51004;54.692;9.332;2023-06-26T14:34:00;7.28;;;1.60;;
64597;SDS011;51004;54.692;9.332;2023-06-26T14:36:28;3.92;;;1.40;;
64597;SDS011;51004;54.692;9.332;2023-06-26T14:38:56;4.88;;;1.80;;
64597;SDS011;51004;54.692;9.332;2023-06-26T14:41:24;4.15;;;1.30;;
64597;SDS011;51004;54.692;9.332;2023-06-26T14:43:53;5.15;;;1.80;;
64597;SDS011;51004;54.692;9.332;2023-06-26T14:46:19;5.40;;;1.52;;
64597;SDS011;51004;54.692;9.332;2023-06-26T14:48:52;4.63;;;1.50;;
64597;SDS011;51004;54.692;9.332;2023-06-26T14:51:20;4.93;;;1.60;;
64597;SDS011;51004;54.692;9.332;2023-06-26T14:53:47;4.75;;;1.77;;
64597;SDS011;51004;54.692;9.332;2023-06-26T14:56:13;4.88;;;2.00;;
64597;SDS011;51004;54.692;9.332;2023-06-26T14:58:39;7.18;;;2.03;;
64597;SDS011;51004;54.692;9.332;2023-06-26T15:01:05;5.88;;;1.65;;